D/T METAR WX W/DIR W/SPE G/SPE TEMP DEWP
25/02/20 15:09 EGDM 251509Z 26019KT 7000 -SHRA SCT010 BKN017TCU 03/02 Q0998 BECMG 9999 NSW SCT025 RMK GRN BECMG BLU -SHRA W (260°) 21.9mph 3°C 2°C
25/02/20 14:21 EGDM 251421Z 26014KT 9999 FEW018 SCT030 BKN080 07/03 Q0998 TEMPO 4000 SHRA BKN018 RMK BLU TEMPO WHT W (260°) 16.1mph 7°C 3°C
25/02/20 13:50 EGDM 251350Z 28013KT 9999 FEW017 SCT030 BKN100 06/03 Q0999 BLU TEMPO -SHRA SCT017 RMK BLU TEMPO WHT W (280°) 15.0mph 6°C 3°C
25/02/20 13:27 EGDM 251327Z 28014G31KT 9999 VCSH FEW016 SCT018 BKN250 05/03 Q0999 TEMPO FEW020 RMK WHT TEMPO BLU VCSH W (280°) 16.1mph 35.7mph 5°C 3°C
25/02/20 12:50 EGDM 251250Z 26018KT 9999 FEW021 BKN030 08/03 Q1000 TEMPO -SHRA SCT021 RMK BLU TEMPO WHT W (260°) 20.7mph 8°C 3°C
25/02/20 12:20 EGDM 251220Z 25020KT 9999 -RADZ SCT020 BKN028 06/03 Q1000 BECMG FEW020 NSW RMK WHT BECMG BLU -RA -DZ WSW (250°) 23.0mph 6°C 3°C
25/02/20 11:50 EGDM 251150Z 26014KT 9999 FEW020 BKN025 06/03 Q1001 NOSIG RMK BLU BLU W (260°) 16.1mph 6°C 3°C
25/02/20 11:20 EGDM 251120Z 24012KT 9999 FEW018 SCT090 06/03 Q1001 NOSIG RMK BLU BLU WSW (240°) 13.8mph 6°C 3°C
25/02/20 10:50 EGDM 251050Z 25013KT 9999 FEW018 SCT040 BKN160 06/03 Q1001 NOSIG RMK BLU BLU WSW (250°) 15.0mph 6°C 3°C
25/02/20 10:20 EGDM 251020Z 26016KT 9999 -RA FEW016 BKN040 05/02 Q1001 NOSIG RMK BLU BLU -RA W (260°) 18.4mph 5°C 2°C
25/02/20 09:50 EGDM 250950Z 26017KT 9999 FEW014 BKN060 05/02 Q1002 TEMPO 6000 SHRA SCT015 RMK BLU TEMPO WHT W (260°) 19.6mph 5°C 2°C
25/02/20 09:20 EGDM 250920Z 26014KT 9999 SCT018 BKN030 BKN070 06/03 Q1002 TEMPO 7000 -SHRA RMK WHT TEMPO WHT W (260°) 16.1mph 6°C 3°C
25/02/20 08:50 EGDM 250850Z 25012KT 9999 BKN018 BKN120 06/04 Q1002 TEMPO 7000 -SHRA RMK WHT TEMPO WHT WSW (250°) 13.8mph 6°C 4°C
25/02/20 08:20 EGDM 250820Z 25010KT 9999 SCT022 05/03 Q1002 TEMPO 7000 -SHRA RMK WHT TEMPO WHT WSW (250°) 11.5mph 5°C 3°C
25/02/20 07:50 EGDM 250750Z 24011KT 9999 FEW025 05/03 Q1003 NOSIG RMK BLU BLU WSW (240°) 12.7mph 5°C 3°C
25/02/20 06:50 EGDM 250650Z 25012KT 9999 SCT022 04/02 Q1003 RMK WHT WHT WSW (250°) 13.8mph 4°C 2°C
25/02/20 05:50 EGDM 250550Z AUTO 24011KT 9999 FEW023/// SCT029/// 05/03 Q1004 WSW (240°) 12.7mph 5°C 3°C
25/02/20 04:50 EGDM 250450Z AUTO 23011KT 9999 SCT048/// 04/03 Q1004 SW (230°) 12.7mph 4°C 3°C
25/02/20 03:50 EGDM 250350Z AUTO 24009KT 9999 FEW019/// 05/03 Q1005 WSW (240°) 10.4mph 5°C 3°C
25/02/20 02:50 EGDM 250250Z AUTO 27012KT 9999 FEW016/// BKN020/// 06/04 Q1005 W (270°) 13.8mph 6°C 4°C
25/02/20 01:50 EGDM 250150Z AUTO 25010KT 9999 FEW017/// SCT023/// BKN041/// 06/04 Q1005 WSW (250°) 11.5mph 6°C 4°C
25/02/20 00:50 EGDM 250050Z AUTO 26015KT 9999 SCT039/// BKN048/// 06/04 Q1006 RERA W (260°) 17.3mph 6°C 4°C
24/02/20 23:50 EGDM 242350Z AUTO 26011KT 9999 SCT049/// 06/04 Q1006 RERA W (260°) 12.7mph 6°C 4°C
24/02/20 22:50 EGDM 242250Z AUTO 26015KT 9999 BKN039/// 07/04 Q1006 W (260°) 17.3mph 7°C 4°C
24/02/20 21:50 EGDM 242150Z AUTO 26012KT 9999 SCT039/// 07/05 Q1007 W (260°) 13.8mph 7°C 5°C
24/02/20 20:50 EGDM 242050Z AUTO 27013KT 9999 FEW035/// 07/05 Q1007 W (270°) 15.0mph 7°C 5°C
24/02/20 19:50 EGDM 241950Z AUTO 27015KT 9999 SCT023/// 08/05 Q1006 W (270°) 17.3mph 8°C 5°C
24/02/20 18:50 EGDM 241850Z AUTO 27019KT 9999 FEW019/// SCT030/// 09/06 Q1006 W (270°) 21.9mph 9°C 6°C
24/02/20 17:50 EGDM 241750Z 26018KT 9999 BKN017 OVC030 10/07 Q1005 RMK WHT W (260°) 20.7mph 10°C 7°C
24/02/20 17:20 EGDM 241720Z 26022KT 9999 BKN018 SCT031 BKN180 11/07 Q1005 NOSIG RMK WHT WHT W (260°) 25.3mph 11°C 7°C
24/02/20 16:50 EGDM 241650Z 26019KT 9999 BKN017 SCT030 BKN200 11/09 Q1005 NOSIG RMK WHT WHT W (260°) 21.9mph 11°C 9°C
24/02/20 16:21 EGDM 241621Z 26023KT 9999 BKN015 BKN030 BKN250 11/09 Q1005 NOSIG RMK WHT WHT W (260°) 26.5mph 11°C 9°C
24/02/20 15:50 EGDM 241550Z 25021KT 9999 FEW008 BKN013 BKN020 11/10 Q1005 BECMG BKN015 RMK GRN BECMG WHT WSW (250°) 24.2mph 11°C 10°C
24/02/20 15:20 EGDM 241520Z 24017KT 9999 BKN008 OVC015 11/10 Q1005 TEMPO 6000 -RADZ RMK GRN TEMPO GRN WSW (240°) 19.6mph 11°C 10°C
24/02/20 14:50 EGDM 241450Z 23017KT 9999 -RADZ BKN008 OVC015 11/10 Q1005 NOSIG RMK GRN GRN -RA -DZ SW (230°) 19.6mph 11°C 10°C
24/02/20 14:26 EGDM 241426Z 23019KT 5000 -RADZ FEW007 BKN008 OVC015 11/10 Q1006 BECMG 9999 NSW RMK GRN GRN -RA -DZ SW (230°) 21.9mph 11°C 10°C
24/02/20 14:03 EGDM 241403Z 22020KT 9999 FEW007 BKN008 OVC015 10/10 Q1006 TEMPO 6000 -RADZ RMK GRN TEMPO GRN SW (220°) 23.0mph 10°C 10°C
24/02/20 13:45 EGDM 241345Z 23019KT 6000 -RADZ BKN009 BKN016 10/10 Q1006 BECMG 9999 NSW RMK GRN BECMG GRN -RA -DZ SW (230°) 21.9mph 10°C 10°C
24/02/20 12:50 EGDM 241250Z 23020G30KT 9999 -RA BKN009 BKN016 10/09 Q1007 NOSIG RMK GRN GRN -RA SW (230°) 23.0mph 34.5mph 10°C 9°C
24/02/20 12:21 EGDM 241221Z 23020KT 8000 RA BKN009 BKN016 10/09 Q1007 TEMPO 6000 RMK GRN TEMPO GRN RA SW (230°) 23.0mph 10°C 9°C
24/02/20 11:50 EGDM 241150Z 23021KT 8000 6000S RA BKN009 BKN015 10/09 Q1008 TEMPO 4000 RMK GRN TEMPO GRN RA SW (230°) 24.2mph 10°C 9°C
24/02/20 11:20 EGDM 241120Z 23021G31KT 8000 6000S -RA BKN009 OVC016 10/09 Q1008 TEMPO 4000 RA RMK GRN TEMPO GRN -RA SW (230°) 24.2mph 35.7mph 10°C 9°C
24/02/20 10:50 EGDM 241050Z 23022KT 7000 -RA BKN009 OVC016 10/09 Q1008 TEMPO 4000 RA RMK GRN TEMPO GRN -RA SW (230°) 25.3mph 10°C 9°C
24/02/20 10:20 EGDM 241020Z 23023G34KT 9999 -RA BKN010 10/09 Q1008 BECMG 7000 RA RMK GRN BECMG GRN -RA SW (230°) 26.5mph 39.1mph 10°C 9°C
24/02/20 09:50 EGDM 240950Z 23027G42KT 9999 -RA BKN010 10/09 Q1009 BECMG 7000 RMK GRN BECMG GRN -RA SW (230°) 31.1mph 48.3mph 10°C 9°C
24/02/20 09:41 EGDM 240941Z 23025G36KT 9999 -RA SCT008 OVC012 10/09 Q1009 BECMG 7000 RMK GRN BECMG GRN -RA SW (230°) 28.8mph 41.4mph 10°C 9°C
24/02/20 08:50 EGDM 240850Z 23028KT 9999 -RA BKN012 10/09 Q1009 BECMG 7000 RMK GRN BECMG GRN -RA SW (230°) 32.2mph 10°C 9°C
24/02/20 08:26 EGDM 240826Z 23027G37KT 9999 BKN012 10/09 Q1009 BECMG 7000 -RA RMK GRN BECMG GRN SW (230°) 31.1mph 42.6mph 10°C 9°C